Time;durP1;ratioP1;P1;durP2;ratioP2;P2;SDS_P1;SDS_P2;PMS_P1;PMS_P2;Temp;Humidity;BMP_temperature;BMP_pressure;BME280_temperature;BME280_humidity;BME280_pressure;Samples;Min_cycle;Max_cycle;Signal;HPM_P1;HPM_P2
2021/07/19 00:01:19;;;;;;;6.07;3.47;;;22.60;71.10;;;;;;5097712;28;20054;-74
2021/07/19 00:03:45;;;;;;;5.18;3.40;;;22.60;71.10;;;;;;5097254;28;20127;-74
2021/07/19 00:06:12;;;;;;;5.72;3.42;;;22.60;71.10;;;;;;5096888;28;20046;-74
2021/07/19 00:08:38;;;;;;;5.38;2.97;;;22.60;71.10;;;;;;5097088;28;20075;-74
2021/07/19 00:11:05;;;;;;;4.40;3.53;;;22.60;71.10;;;;;;5096278;28;20046;-74
2021/07/19 00:13:31;;;;;;;4.38;3.17;;;22.60;71.20;;;;;;5096873;28;20042;-74
2021/07/19 00:15:59;;;;;;;7.97;3.70;;;22.50;71.10;;;;;;5096909;28;20043;-74
2021/07/19 00:18:26;;;;;;;5.38;3.30;;;22.50;71.10;;;;;;5097320;28;20066;-74
2021/07/19 00:20:52;;;;;;;5.25;3.50;;;22.50;71.10;;;;;;5096562;28;20082;-74
2021/07/19 00:23:18;;;;;;;4.57;2.78;;;22.50;71.10;;;;;;5096947;28;20036;-74
2021/07/19 00:25:43;;;;;;;5.75;4.22;;;22.50;71.10;;;;;;5097029;28;20055;-74
2021/07/19 00:28:09;;;;;;;4.15;3.47;;;22.50;71.10;;;;;;5096410;28;20414;-74
2021/07/19 00:30:37;;;;;;;4.10;3.42;;;22.50;71.10;;;;;;5096670;28;20108;-73
2021/07/19 00:33:06;;;;;;;4.97;3.72;;;22.50;71.10;;;;;;5096680;28;20040;-74
2021/07/19 00:35:32;;;;;;;4.88;3.55;;;22.50;71.10;;;;;;5096370;28;20036;-74
2021/07/19 00:37:58;;;;;;;5.53;3.58;;;22.50;71.10;;;;;;5096626;28;20443;-74
2021/07/19 00:40:27;;;;;;;4.68;3.63;;;22.50;71.10;;;;;;5096745;28;20078;-74
2021/07/19 00:42:54;;;;;;;4.38;3.33;;;22.50;71.10;;;;;;5096356;28;20074;-74
2021/07/19 00:45:24;;;;;;;4.57;3.25;;;22.50;71.10;;;;;;5096241;28;20044;-74
2021/07/19 00:47:52;;;;;;;4.47;3.80;;;22.50;71.10;;;;;;5096145;28;20436;-74
2021/07/19 00:50:18;;;;;;;3.70;3.10;;;22.50;71.10;;;;;;5095977;28;20036;-74
2021/07/19 00:52:45;;;;;;;5.40;3.33;;;22.40;71.10;;;;;;5095567;28;20040;-74
2021/07/19 00:55:12;;;;;;;4.93;3.38;;;22.50;71.20;;;;;;5095895;28;20346;-74
2021/07/19 00:57:44;;;;;;;5.88;4.13;;;22.50;71.20;;;;;;5096145;28;20113;-74
2021/07/19 01:00:11;;;;;;;6.25;3.90;;;22.40;71.10;;;;;;5096253;28;20048;-74
2021/07/19 01:02:41;;;;;;;4.43;3.25;;;22.50;71.20;;;;;;5096499;28;20135;-74
2021/07/19 01:05:08;;;;;;;5.22;3.58;;;22.40;71.20;;;;;;5095594;28;20385;-74
2021/07/19 01:07:37;;;;;;;5.35;3.63;;;22.50;71.20;;;;;;5096072;28;20051;-74
2021/07/19 01:10:13;;;;;;;5.20;4.00;;;22.40;71.10;;;;;;5095765;28;20404;-74
2021/07/19 01:12:42;;;;;;;4.63;3.60;;;22.40;71.10;;;;;;5095854;28;20431;-74
2021/07/19 01:15:09;;;;;;;7.05;3.90;;;22.40;71.10;;;;;;5095895;28;20118;-74
2021/07/19 01:17:35;;;;;;;5.63;3.95;;;22.40;71.10;;;;;;5095726;28;20051;-73
2021/07/19 01:20:01;;;;;;;5.88;3.72;;;22.40;71.10;;;;;;5095585;28;20442;-74
2021/07/19 01:23:04;;;;;;;5.90;4.13;;;22.40;71.10;;;;;;5095701;28;20056;-74
2021/07/19 01:25:45;;;;;;;6.05;3.78;;;22.40;71.00;;;;;;5095439;28;20138;-74
2021/07/19 01:28:47;;;;;;;5.15;4.03;;;22.40;71.00;;;;;;5095867;28;20139;-74
2021/07/19 01:31:16;;;;;;;4.72;3.17;;;22.40;71.00;;;;;;5095874;28;20402;-74
2021/07/19 01:33:46;;;;;;;4.80;4.00;;;22.40;71.10;;;;;;5095681;28;20036;-74
2021/07/19 01:36:14;;;;;;;5.47;3.92;;;22.40;71.10;;;;;;5095425;28;20074;-74
2021/07/19 01:38:41;;;;;;;4.78;3.33;;;22.40;71.00;;;;;;5095514;28;20443;-74
2021/07/19 01:41:08;;;;;;;6.95;3.97;;;22.40;71.00;;;;;;5095115;28;20051;-74
2021/07/19 01:43:34;;;;;;;5.35;4.05;;;22.30;71.00;;;;;;5095311;28;20040;-74
2021/07/19 01:46:02;;;;;;;6.00;4.03;;;22.30;70.90;;;;;;5095540;28;20105;-74
2021/07/19 01:48:31;;;;;;;5.28;3.72;;;22.30;70.90;;;;;;5095485;28;20044;-74
2021/07/19 01:51:01;;;;;;;6.10;4.43;;;22.30;70.90;;;;;;5095663;28;20044;-74
2021/07/19 01:53:30;;;;;;;5.43;3.90;;;22.30;70.90;;;;;;5095924;28;20048;-74
2021/07/19 01:56:00;;;;;;;7.72;3.85;;;22.30;71.00;;;;;;5095214;28;20052;-74
2021/07/19 01:58:28;;;;;;;5.57;3.85;;;22.30;71.00;;;;;;5095297;28;20053;-74
2021/07/19 02:00:54;;;;;;;4.22;3.65;;;22.30;71.00;;;;;;5095418;28;20036;-74
2021/07/19 02:03:22;;;;;;;4.80;3.88;;;22.30;71.00;;;;;;5095000;28;20051;-74
2021/07/19 02:05:50;;;;;;;5.55;3.95;;;22.30;71.00;;;;;;5095479;28;20132;-74
2021/07/19 02:08:17;;;;;;;4.35;3.92;;;22.30;71.00;;;;;;5095013;28;20154;-73
2021/07/19 02:10:47;;;;;;;6.63;4.20;;;22.30;70.90;;;;;;5095232;28;20064;-74
2021/07/19 02:13:14;;;;;;;6.10;3.67;;;22.30;70.90;;;;;;5095223;28;20132;-74
2021/07/19 02:15:41;;;;;;;4.72;4.10;;;22.30;70.90;;;;;;5095175;28;20445;-74
2021/07/19 02:18:08;;;;;;;4.85;4.20;;;22.30;70.90;;;;;;5095111;28;20044;-74
2021/07/19 02:20:35;;;;;;;6.18;4.00;;;22.30;70.90;;;;;;5095447;28;20040;-74
2021/07/19 02:23:05;;;;;;;5.13;3.67;;;22.30;70.90;;;;;;5094950;28;20044;-74
2021/07/19 02:25:33;;;;;;;6.65;4.53;;;22.30;70.90;;;;;;5095067;28;20052;-74
2021/07/19 02:28:01;;;;;;;6.45;4.03;;;22.30;70.90;;;;;;5095104;28;20139;-74
2021/07/19 02:30:27;;;;;;;5.05;4.15;;;22.30;70.90;;;;;;5094982;28;20097;-73
2021/07/19 02:32:56;;;;;;;5.97;3.85;;;22.30;70.90;;;;;;5094626;28;20347;-74
2021/07/19 02:35:26;;;;;;;4.75;3.85;;;22.30;70.90;;;;;;5096858;28;20051;-74
2021/07/19 02:37:56;;;;;;;5.53;4.40;;;22.30;70.80;;;;;;5098700;28;20118;-74
2021/07/19 02:40:24;;;;;;;7.10;4.40;;;22.30;70.80;;;;;;5098726;28;20091;-74
2021/07/19 02:43:01;;;;;;;4.35;3.65;;;22.30;70.80;;;;;;5098556;28;20355;-73
2021/07/19 02:45:29;;;;;;;6.85;4.65;;;22.20;70.80;;;;;;5098358;28;20055;-73
2021/07/19 02:47:56;;;;;;;3.92;3.53;;;22.20;70.80;;;;;;5098860;28;20040;-73
2021/07/19 02:50:24;;;;;;;4.50;3.60;;;22.20;70.80;;;;;;5098489;28;20048;-73
2021/07/19 02:52:52;;;;;;;5.43;3.70;;;22.20;70.70;;;;;;5098262;28;20093;-74
2021/07/19 02:55:18;;;;;;;4.70;4.03;;;22.20;70.80;;;;;;5098434;28;20372;-74
2021/07/19 02:57:45;;;;;;;6.18;4.00;;;22.20;70.80;;;;;;5098298;28;20331;-74
2021/07/19 03:00:14;;;;;;;5.50;4.25;;;22.20;70.80;;;;;;5097992;28;20044;-74
2021/07/19 03:02:46;;;;;;;5.40;3.85;;;22.20;70.80;;;;;;5098195;28;20069;-74
2021/07/19 03:05:17;;;;;;;6.03;3.85;;;22.20;70.80;;;;;;5098324;28;20048;-74
2021/07/19 03:07:47;;;;;;;5.38;3.67;;;22.20;70.80;;;;;;5098004;28;20354;-74
2021/07/19 03:10:14;;;;;;;5.72;3.53;;;22.20;70.80;;;;;;5098238;28;20400;-74
2021/07/19 03:12:42;;;;;;;5.43;4.07;;;22.20;70.80;;;;;;5098314;28;20119;-74
2021/07/19 03:15:08;;;;;;;5.22;4.03;;;22.20;70.80;;;;;;5097910;28;20447;-74
2021/07/19 03:17:38;;;;;;;4.65;3.90;;;22.20;70.80;;;;;;5098682;28;20044;-74
2021/07/19 03:20:07;;;;;;;5.90;3.92;;;22.20;70.70;;;;;;5098663;28;20048;-74
2021/07/19 03:22:37;;;;;;;4.65;3.63;;;22.20;70.80;;;;;;5097944;28;20134;-74
2021/07/19 03:25:05;;;;;;;5.72;3.60;;;22.20;70.80;;;;;;5097850;28;20044;-75
2021/07/19 03:27:32;;;;;;;4.63;3.72;;;22.20;71.40;;;;;;5097945;28;20062;-74
2021/07/19 03:29:59;;;;;;;5.47;3.83;;;22.20;70.80;;;;;;5097890;28;20040;-74
2021/07/19 03:32:25;;;;;;;5.50;4.07;;;22.20;70.80;;;;;;5097768;28;20134;-74
2021/07/19 03:34:53;;;;;;;5.00;3.50;;;22.20;70.70;;;;;;5097547;28;20105;-74
2021/07/19 03:37:21;;;;;;;5.75;4.15;;;22.20;70.70;;;;;;5097879;28;20048;-74
2021/07/19 03:39:48;;;;;;;4.63;3.72;;;22.10;70.70;;;;;;5097690;28;20036;-74
2021/07/19 03:42:15;;;;;;;5.28;3.72;;;22.20;70.70;;;;;;5097863;28;20032;-74
2021/07/19 03:44:41;;;;;;;5.28;3.80;;;22.20;70.70;;;;;;5097535;28;20423;-74
2021/07/19 03:47:10;;;;;;;5.72;4.03;;;22.20;70.70;;;;;;5096189;28;20040;-74
2021/07/19 03:49:37;;;;;;;6.25;3.92;;;22.10;70.70;;;;;;5097259;28;20040;-74
2021/07/19 03:52:04;;;;;;;5.43;4.32;;;22.10;70.70;;;;;;5097769;28;20040;-74
2021/07/19 03:54:33;;;;;;;4.32;3.58;;;22.10;70.70;;;;;;5097497;28;20132;-74
2021/07/19 03:57:01;;;;;;;4.72;3.90;;;22.10;70.70;;;;;;5097178;28;20453;-74
2021/07/19 03:59:28;;;;;;;5.57;4.00;;;22.10;70.80;;;;;;5097134;28;20047;-74
2021/07/19 04:01:56;;;;;;;7.07;4.30;;;22.10;70.70;;;;;;5097369;28;20320;-75
2021/07/19 04:04:39;;;;;;;5.18;4.20;;;22.10;70.70;;;;;;5097042;28;20051;-75
2021/07/19 04:07:06;;;;;;;5.72;3.75;;;22.10;70.70;;;;;;5097474;28;20122;-74
2021/07/19 04:09:33;;;;;;;4.55;3.88;;;22.10;70.80;;;;;;5097320;28;20108;-74
2021/07/19 04:12:00;;;;;;;5.35;4.07;;;22.10;70.80;;;;;;5096992;28;20439;-74
2021/07/19 04:14:26;;;;;;;4.43;3.72;;;22.10;70.80;;;;;;5096806;28;20123;-74
2021/07/19 04:16:52;;;;;;;5.18;3.92;;;22.10;70.80;;;;;;5097093;28;20068;-74
2021/07/19 04:19:21;;;;;;;5.47;4.47;;;22.10;70.80;;;;;;5096931;28;20052;-74
2021/07/19 04:21:47;;;;;;;5.63;3.85;;;22.10;71.40;;;;;;5096623;28;20048;-74
2021/07/19 04:24:13;;;;;;;6.00;3.97;;;22.10;70.80;;;;;;5096663;28;20071;-74
2021/07/19 04:26:39;;;;;;;4.82;4.00;;;22.10;70.80;;;;;;5096706;28;20048;-74
2021/07/19 04:29:05;;;;;;;5.55;3.80;;;22.10;70.70;;;;;;5097401;28;20072;-74
2021/07/19 04:31:35;;;;;;;5.70;4.30;;;22.10;70.80;;;;;;5096320;28;20052;-74
2021/07/19 04:34:02;;;;;;;4.95;3.78;;;22.10;70.80;;;;;;5096279;28;20044;-74
2021/07/19 04:36:28;;;;;;;5.53;4.07;;;22.10;70.70;;;;;;5096075;28;20048;-74
2021/07/19 04:38:55;;;;;;;5.07;4.00;;;22.10;70.70;;;;;;5096342;28;20411;-74
2021/07/19 04:41:21;;;;;;;5.22;3.90;;;22.10;70.70;;;;;;5096559;28;20044;-74
2021/07/19 04:43:47;;;;;;;5.60;3.83;;;22.10;70.70;;;;;;5096962;28;20090;-75
2021/07/19 04:46:14;;;;;;;6.05;4.40;;;22.00;70.70;;;;;;5096702;28;20407;-74
2021/07/19 04:48:40;;;;;;;3.95;3.55;;;22.10;70.70;;;;;;5096117;28;20036;-74
2021/07/19 04:51:06;;;;;;;6.38;4.10;;;22.10;70.70;;;;;;5096853;28;20044;-74
2021/07/19 04:53:32;;;;;;;5.95;4.50;;;22.10;70.70;;;;;;5096207;28;20043;-75
2021/07/19 04:56:00;;;;;;;3.50;3.20;;;22.00;70.70;;;;;;5096274;28;20438;-74
2021/07/19 04:58:28;;;;;;;6.38;4.13;;;22.10;70.70;;;;;;5095815;28;20101;-74
2021/07/19 05:00:59;;;;;;;5.57;4.35;;;22.00;70.70;;;;;;5095785;28;20062;-74
2021/07/19 05:03:29;;;;;;;5.65;3.88;;;22.00;70.60;;;;;;5095793;28;20415;-74
2021/07/19 05:06:00;;;;;;;3.78;3.42;;;22.00;70.70;;;;;;5096047;28;20044;-74
2021/07/19 05:08:27;;;;;;;5.07;3.78;;;22.00;70.70;;;;;;5095946;28;20047;-74
2021/07/19 05:10:54;;;;;;;5.82;4.10;;;22.00;70.70;;;;;;5095968;28;20109;-74
2021/07/19 05:13:23;;;;;;;4.50;3.45;;;22.00;70.70;;;;;;5095808;28;20047;-74
2021/07/19 05:15:49;;;;;;;5.43;3.80;;;22.00;70.70;;;;;;5095706;28;20115;-74
2021/07/19 05:18:18;;;;;;;4.97;3.97;;;22.00;70.70;;;;;;5095593;28;20044;-74
2021/07/19 05:20:45;;;;;;;5.78;4.05;;;22.00;70.70;;;;;;5096405;28;20121;-74
2021/07/19 05:23:11;;;;;;;5.78;3.55;;;22.00;70.70;;;;;;5095747;28;20044;-75
2021/07/19 05:25:38;;;;;;;5.15;3.88;;;22.00;70.70;;;;;;5095399;28;20470;-74
2021/07/19 05:28:12;;;;;;;6.18;3.90;;;22.00;70.70;;;;;;5095911;28;20113;-75
2021/07/19 05:30:41;;;;;;;5.68;3.50;;;22.00;70.70;;;;;;5095899;28;20055;-74
2021/07/19 05:33:08;;;;;;;5.35;3.85;;;22.00;70.70;;;;;;5095663;28;20043;-74
2021/07/19 05:35:34;;;;;;;5.07;3.90;;;22.00;70.70;;;;;;5095522;28;20036;-74
2021/07/19 05:38:04;;;;;;;4.57;3.20;;;22.00;70.70;;;;;;5095361;28;20199;-74
2021/07/19 05:40:31;;;;;;;5.72;3.78;;;22.00;70.70;;;;;;5095632;28;20119;-74
2021/07/19 05:42:59;;;;;;;5.43;3.40;;;22.00;70.70;;;;;;5095501;28;20044;-74
2021/07/19 05:45:25;;;;;;;5.68;3.65;;;22.00;70.70;;;;;;5095558;28;20158;-74
2021/07/19 05:47:51;;;;;;;4.55;3.15;;;22.00;70.60;;;;;;5095484;28;20366;-74
2021/07/19 05:50:18;;;;;;;5.40;2.80;;;22.00;70.70;;;;;;5095329;28;20040;-74
2021/07/19 05:52:44;;;;;;;5.72;3.38;;;22.00;71.20;;;;;;5095537;28;20052;-74
2021/07/19 05:55:10;;;;;;;4.15;3.20;;;22.00;70.70;;;;;;5095132;28;20525;-74
2021/07/19 05:57:36;;;;;;;3.88;3.08;;;22.00;70.60;;;;;;5095335;28;20129;-74
2021/07/19 06:00:07;;;;;;;4.57;3.00;;;22.00;70.60;;;;;;5095280;28;20414;-74
2021/07/19 06:02:34;;;;;;;4.72;3.45;;;22.00;70.70;;;;;;5095313;28;20036;-74
2021/07/19 06:05:05;;;;;;;5.07;3.40;;;22.00;70.60;;;;;;5095009;28;20044;-75
2021/07/19 06:07:30;;;;;;;4.90;3.08;;;22.00;70.70;;;;;;5095277;28;20044;-74
2021/07/19 06:09:57;;;;;;;5.47;3.20;;;22.00;70.70;;;;;;5096683;28;20066;-74
2021/07/19 06:12:22;;;;;;;4.85;3.65;;;22.00;70.70;;;;;;5099238;28;20134;-74
2021/07/19 06:14:48;;;;;;;4.22;3.22;;;22.00;70.70;;;;;;5098997;28;20454;-74
2021/07/19 06:17:15;;;;;;;4.40;3.28;;;22.00;70.70;;;;;;5098882;28;20051;-74
2021/07/19 06:19:41;;;;;;;4.28;3.20;;;22.00;70.70;;;;;;5099179;28;20059;-74
2021/07/19 06:22:10;;;;;;;3.95;3.13;;;22.10;70.80;;;;;;5099190;28;20101;-74
2021/07/19 06:24:37;;;;;;;4.18;3.28;;;22.00;70.70;;;;;;5099429;28;20032;-74
2021/07/19 06:27:05;;;;;;;5.32;3.38;;;22.00;70.70;;;;;;5098913;28;20051;-74
2021/07/19 06:29:31;;;;;;;4.00;3.15;;;22.00;70.80;;;;;;5099249;28;20040;-74
2021/07/19 06:31:57;;;;;;;3.63;2.90;;;22.00;70.70;;;;;;5099661;28;20477;-74
2021/07/19 06:34:22;;;;;;;3.95;3.08;;;22.00;70.70;;;;;;5098743;28;20564;-74
2021/07/19 06:36:49;;;;;;;4.25;3.13;;;22.00;70.70;;;;;;5098471;28;20040;-74
2021/07/19 06:39:14;;;;;;;4.15;3.28;;;22.10;70.70;;;;;;5098412;28;20040;-74
2021/07/19 06:41:40;;;;;;;5.13;3.28;;;22.10;70.60;;;;;;5098822;28;20334;-74
2021/07/19 06:44:06;;;;;;;4.57;3.13;;;22.10;70.50;;;;;;5098931;28;20098;-74
2021/07/19 06:46:32;;;;;;;5.32;3.33;;;22.10;70.50;;;;;;5098928;28;20132;-74
2021/07/19 06:48:58;;;;;;;5.15;2.97;;;22.10;70.50;;;;;;5098783;28;20050;-74
2021/07/19 06:51:24;;;;;;;4.40;3.42;;;22.10;70.50;;;;;;5098889;28;20451;-74
2021/07/19 06:53:50;;;;;;;3.33;2.72;;;22.10;70.50;;;;;;5098942;28;20028;-74
2021/07/19 06:56:15;;;;;;;4.43;2.95;;;22.10;70.50;;;;;;5098142;28;20143;-74
2021/07/19 06:58:41;;;;;;;5.32;3.40;;;22.20;70.50;;;;;;5098568;28;20048;-74
2021/07/19 07:01:07;;;;;;;5.47;3.30;;;22.20;70.40;;;;;;5098245;28;20055;-74
2021/07/19 07:03:33;;;;;;;4.97;3.25;;;22.20;70.30;;;;;;5098359;28;20040;-74
2021/07/19 07:05:59;;;;;;;3.83;3.20;;;22.20;70.20;;;;;;5097983;28;20039;-74
2021/07/19 07:08:24;;;;;;;4.35;2.75;;;22.20;70.80;;;;;;5098197;28;20325;-73
2021/07/19 07:10:52;;;;;;;3.28;2.92;;;22.20;70.10;;;;;;5098040;28;20040;-74
2021/07/19 07:13:18;;;;;;;4.53;2.92;;;22.20;70.10;;;;;;5098036;28;20048;-74
2021/07/19 07:15:44;;;;;;;4.70;2.88;;;22.20;70.10;;;;;;5098102;28;20067;-74
2021/07/19 07:18:11;;;;;;;5.35;3.03;;;22.30;70.10;;;;;;5098237;28;20130;-73
2021/07/19 07:20:37;;;;;;;3.03;2.55;;;22.30;70.00;;;;;;5098058;28;20131;-74
2021/07/19 07:23:05;;;;;;;3.95;2.95;;;22.30;70.00;;;;;;5098088;28;20435;-74
2021/07/19 07:25:31;;;;;;;4.75;3.40;;;22.30;70.00;;;;;;5097968;28;20093;-74
2021/07/19 07:27:57;;;;;;;3.55;3.05;;;22.30;70.00;;;;;;5097816;28;20036;-74
2021/07/19 07:30:24;;;;;;;6.30;3.33;;;22.30;69.90;;;;;;5098473;28;20070;-73
2021/07/19 07:32:50;;;;;;;6.10;3.20;;;22.20;69.90;;;;;;5097881;28;20036;-74
2021/07/19 07:35:16;;;;;;;3.40;3.03;;;22.20;69.80;;;;;;5098023;28;20043;-74
2021/07/19 07:37:42;;;;;;;5.38;3.35;;;22.20;69.80;;;;;;5097204;28;20119;-74
2021/07/19 07:40:13;;;;;;;4.90;3.33;;;22.30;69.90;;;;;;5097490;28;20047;-73
2021/07/19 07:42:38;;;;;;;5.35;3.03;;;22.20;69.90;;;;;;5097563;28;20375;-74
2021/07/19 07:45:06;;;;;;;4.20;2.60;;;22.20;69.90;;;;;;5097621;28;20039;-74
2021/07/19 07:47:31;;;;;;;5.47;3.10;;;22.20;70.00;;;;;;5097404;28;20064;-74
2021/07/19 07:49:57;;;;;;;5.43;2.95;;;22.20;70.00;;;;;;5096982;28;20060;-73
2021/07/19 07:52:23;;;;;;;4.00;3.15;;;22.20;70.10;;;;;;5097841;28;20423;-74
2021/07/19 07:54:49;;;;;;;3.47;2.83;;;22.20;70.10;;;;;;5097569;28;20055;-74
2021/07/19 07:57:15;;;;;;;5.03;2.90;;;22.20;70.00;;;;;;5097462;28;20362;-74
2021/07/19 07:59:41;;;;;;;4.93;2.78;;;22.20;70.00;;;;;;5097293;28;20043;-74
2021/07/19 08:02:08;;;;;;;4.50;2.92;;;22.20;70.00;;;;;;5096876;28;20557;-73
2021/07/19 08:04:34;;;;;;;5.10;2.83;;;22.30;70.10;;;;;;5097542;28;20032;-74
2021/07/19 08:07:02;;;;;;;3.67;2.55;;;22.30;70.10;;;;;;5097060;28;20118;-74
2021/07/19 08:09:29;;;;;;;5.05;3.22;;;22.20;70.00;;;;;;5097163;28;20118;-73
2021/07/19 08:11:56;;;;;;;4.13;2.95;;;22.30;70.10;;;;;;5097174;28;20052;-73
2021/07/19 08:14:22;;;;;;;4.40;2.88;;;22.30;69.90;;;;;;5096866;28;20051;-74
2021/07/19 08:16:48;;;;;;;4.15;2.70;;;22.30;69.80;;;;;;5096582;28;20051;-73
2021/07/19 08:19:15;;;;;;;3.63;2.83;;;22.30;69.70;;;;;;5096506;28;20115;-74
2021/07/19 08:21:42;;;;;;;4.78;3.20;;;22.30;69.60;;;;;;5096757;28;20083;-74
2021/07/19 08:24:08;;;;;;;5.50;3.25;;;22.30;69.50;;;;;;5097028;28;20070;-73
2021/07/19 08:26:34;;;;;;;3.17;2.83;;;22.30;69.40;;;;;;5096298;28;20056;-74
2021/07/19 08:29:01;;;;;;;4.78;2.78;;;22.30;69.40;;;;;;5096291;28;20111;-73
2021/07/19 08:31:28;;;;;;;4.05;2.53;;;22.30;69.40;;;;;;5097006;28;20119;-73
2021/07/19 08:33:54;;;;;;;5.18;3.22;;;22.30;69.40;;;;;;5095956;28;20032;-73
2021/07/19 08:36:21;;;;;;;3.60;2.42;;;22.30;69.40;;;;;;5096340;28;20119;-74
2021/07/19 08:38:47;;;;;;;5.55;2.78;;;22.40;69.40;;;;;;5096064;28;20061;-74
2021/07/19 08:41:15;;;;;;;4.50;2.92;;;22.40;69.40;;;;;;5096715;28;20047;-74
2021/07/19 08:43:42;;;;;;;3.75;2.95;;;22.40;69.40;;;;;;5096041;28;20439;-73
2021/07/19 08:46:10;;;;;;;3.70;2.95;;;22.40;69.50;;;;;;5096654;28;20100;-74
2021/07/19 08:48:37;;;;;;;3.78;2.58;;;22.30;69.40;;;;;;5096011;28;20048;-74
2021/07/19 08:51:04;;;;;;;3.55;2.90;;;22.30;69.40;;;;;;5095670;28;20106;-74
2021/07/19 08:53:33;;;;;;;5.18;2.85;;;22.40;69.30;;;;;;5095903;28;20063;-73
2021/07/19 08:55:59;;;;;;;3.85;2.65;;;22.40;69.40;;;;;;5096048;28;20052;-74
2021/07/19 08:58:26;;;;;;;4.75;2.92;;;22.40;69.40;;;;;;5095666;28;20055;-73
2021/07/19 09:00:53;;;;;;;4.43;3.17;;;22.40;69.40;;;;;;5095527;28;20426;-74
2021/07/19 09:03:19;;;;;;;4.40;3.20;;;22.40;69.40;;;;;;5095556;28;20039;-73
2021/07/19 09:05:47;;;;;;;5.25;3.22;;;22.40;69.40;;;;;;5095579;28;20038;-74
2021/07/19 09:08:13;;;;;;;6.88;3.22;;;22.40;69.10;;;;;;5096071;28;20036;-73
2021/07/19 09:10:39;;;;;;;7.30;3.50;;;22.40;66.90;;;;;;5095484;28;20462;-73
2021/07/19 09:13:14;;;;;;;7.85;3.47;;;22.30;65.60;;;;;;5095331;28;20100;-73
2021/07/19 09:15:40;;;;;;;7.20;3.67;;;22.30;65.90;;;;;;5095267;28;20036;-73
2021/07/19 09:18:06;;;;;;;7.53;3.70;;;22.20;66.30;;;;;;5095802;28;20490;-71
2021/07/19 09:20:39;;;;;;;5.38;3.10;;;22.30;66.70;;;;;;5095294;28;20237;-73
2021/07/19 09:23:07;;;;;;;8.73;3.47;;;22.30;66.10;;;;;;5095427;28;20051;-73
2021/07/19 09:25:33;;;;;;;9.60;3.38;;;22.20;66.00;;;;;;5095337;28;20422;-73
2021/07/19 09:28:10;;;;;;;6.05;3.20;;;22.20;66.20;;;;;;5095741;28;20284;-73
2021/07/19 09:30:43;;;;;;;6.07;3.20;;;22.30;66.50;;;;;;5095375;28;20039;-73
2021/07/19 09:33:18;;;;;;;8.15;3.50;;;22.30;66.70;;;;;;5095473;28;20044;-73
2021/07/19 09:35:48;;;;;;;4.90;2.97;;;22.30;66.90;;;;;;5095025;28;20044;-72
2021/07/19 09:38:16;;;;;;;5.70;3.60;;;22.30;67.00;;;;;;5095187;28;20039;-73
2021/07/19 09:40:44;;;;;;;6.13;3.05;;;22.30;67.00;;;;;;5095834;28;20071;-73
2021/07/19 09:43:19;;;;;;;7.85;3.42;;;22.30;67.00;;;;;;5095198;28;20072;-73
2021/07/19 09:45:55;;;;;;;4.80;3.42;;;22.40;67.10;;;;;;5095230;28;20393;-73
2021/07/19 09:48:22;;;;;;;6.75;2.97;;;22.40;67.10;;;;;;5095073;28;20073;-73
2021/07/19 09:50:52;;;;;;;7.65;4.25;;;22.40;67.10;;;;;;5095165;28;20043;-73
2021/07/19 09:53:35;;;;;;;8.68;5.20;;;22.40;61.80;;;;;;5094935;28;20351;-73
2021/07/19 09:56:15;;;;;;;10.82;5.28;;;22.20;60.50;;;;;;5095243;28;20470;-73
2021/07/19 09:58:49;;;;;;;7.68;5.07;;;22.10;60.40;;;;;;5094376;28;20081;-73
2021/07/19 10:01:31;;;;;;;;;;;22.00;60.10;;;;;;5095174;28;20521;-73
2021/07/19 10:04:23;;;;;;;9.85;5.65;;;21.90;61.00;;;;;;5094889;28;20238;-73
2021/07/19 10:06:53;;;;;;;11.90;5.53;;;21.80;60.10;;;;;;5094911;28;20131;-72
2021/07/19 10:09:20;;;;;;;9.25;5.50;;;21.80;61.10;;;;;;5094851;28;20067;-73
2021/07/19 10:11:48;;;;;;;8.70;5.50;;;21.80;61.20;;;;;;5095108;28;20051;-73
2021/07/19 10:14:29;;;;;;;9.13;5.80;;;21.80;61.60;;;;;;5094882;28;20044;-73
2021/07/19 10:16:57;;;;;;;9.43;5.80;;;21.90;62.10;;;;;;5094786;28;20451;-73
2021/07/19 10:19:23;;;;;;;9.27;5.38;;;21.90;62.20;;;;;;5095281;28;20085;-73
2021/07/19 10:21:50;;;;;;;10.50;5.40;;;22.00;62.50;;;;;;5094641;28;20119;-73
2021/07/19 10:24:16;;;;;;;6.53;5.00;;;22.00;62.50;;;;;;5095007;28;20044;-73
2021/07/19 10:26:42;;;;;;;7.18;4.97;;;22.10;62.70;;;;;;5094438;28;20530;-72
2021/07/19 10:29:08;;;;;;;10.65;5.70;;;22.10;62.70;;;;;;5094760;28;20044;-73
2021/07/19 10:31:35;;;;;;;8.52;6.10;;;22.10;62.80;;;;;;5094699;28;20055;-73
2021/07/19 10:34:03;;;;;;;8.57;6.03;;;22.10;62.90;;;;;;5095267;28;20040;-73
2021/07/19 10:36:43;;;;;;;9.32;5.80;;;22.10;63.00;;;;;;5094286;28;20388;-73
2021/07/19 10:39:14;;;;;;;7.75;4.70;;;22.10;63.00;;;;;;5094892;28;20046;-73
2021/07/19 10:41:40;;;;;;;8.13;5.43;;;22.20;63.20;;;;;;5094653;28;20051;-72
2021/07/19 10:44:09;;;;;;;10.23;5.63;;;22.20;63.30;;;;;;5094719;28;20040;-73
2021/07/19 10:46:36;;;;;;;7.50;5.22;;;22.20;63.30;;;;;;5094315;28;20051;-74
2021/07/19 10:49:06;;;;;;;8.18;5.57;;;22.20;63.50;;;;;;5095069;28;20036;-73
2021/07/19 10:51:45;;;;;;;10.10;5.32;;;22.20;63.60;;;;;;5094593;28;20036;-73
2021/07/19 10:54:19;;;;;;;8.38;5.47;;;22.30;63.70;;;;;;5094423;28;20355;-72
2021/07/19 10:56:47;;;;;;;8.32;5.72;;;22.20;63.70;;;;;;5096675;28;20054;-73
2021/07/19 10:59:31;;;;;;;9.77;5.47;;;22.30;63.90;;;;;;5098101;28;20040;-73
2021/07/19 11:01:59;;;;;;;8.07;5.10;;;22.30;63.90;;;;;;5097866;28;20352;-73
2021/07/19 11:04:25;;;;;;;6.38;4.97;;;22.30;64.00;;;;;;5098081;28;20043;-73
2021/07/19 11:06:57;;;;;;;8.32;5.50;;;22.30;64.00;;;;;;5098381;28;20040;-72
2021/07/19 11:09:36;;;;;;;7.90;5.20;;;22.30;64.10;;;;;;5097980;28;20042;-72
2021/07/19 11:12:11;;;;;;;10.65;6.07;;;22.30;64.20;;;;;;5097929;28;20043;-73
2021/07/19 11:14:52;;;;;;;8.13;5.65;;;22.30;64.20;;;;;;5097826;28;20040;-73
2021/07/19 11:17:20;;;;;;;6.43;4.90;;;22.30;64.20;;;;;;5097803;28;20536;-73
2021/07/19 11:19:48;;;;;;;10.85;5.93;;;22.30;64.30;;;;;;5097730;28;20047;-73
2021/07/19 11:22:23;;;;;;;7.72;5.93;;;22.40;64.30;;;;;;5097558;28;20132;-72
2021/07/19 11:25:06;;;;;;;11.13;6.45;;;22.30;62.20;;;;;;5097980;28;20044;-72
2021/07/19 11:27:37;;;;;;;8.35;5.68;;;22.30;62.20;;;;;;5097484;28;20032;-72
2021/07/19 11:30:25;;;;;;;7.70;5.43;;;22.30;62.90;;;;;;5097927;28;20119;-73
2021/07/19 11:32:51;;;;;;;7.57;5.78;;;22.20;63.20;;;;;;5097411;28;20048;-73
2021/07/19 11:35:40;;;;;;;7.80;5.47;;;22.20;63.40;;;;;;5097480;28;20088;-73
2021/07/19 11:38:14;;;;;;;7.60;5.13;;;22.30;63.50;;;;;;5097353;28;20036;-72
2021/07/19 11:40:41;;;;;;;7.90;5.85;;;22.30;63.50;;;;;;5097056;28;20101;-73
2021/07/19 11:43:11;;;;;;;9.75;6.10;;;22.30;63.70;;;;;;5097185;28;20046;-73
2021/07/19 11:45:44;;;;;;;8.93;5.70;;;22.30;63.40;;;;;;5097293;28;20105;-72
2021/07/19 11:48:10;;;;;;;8.38;5.70;;;22.30;63.40;;;;;;5096965;28;20343;-73
2021/07/19 11:50:37;;;;;;;7.72;5.90;;;22.30;63.50;;;;;;5097075;28;20044;-72
2021/07/19 11:53:03;;;;;;;9.05;5.85;;;22.30;63.50;;;;;;5096793;28;20044;-73
2021/07/19 11:55:29;;;;;;;8.65;5.72;;;22.30;63.50;;;;;;5096504;28;20087;-73
2021/07/19 11:58:00;;;;;;;10.65;6.47;;;22.30;63.50;;;;;;5096750;28;20324;-73
2021/07/19 12:00:34;;;;;;;7.50;5.20;;;22.30;63.50;;;;;;5097212;28;20109;-73
2021/07/19 12:03:02;;;;;;;8.65;5.70;;;22.30;63.40;;;;;;5097199;28;20093;-73
2021/07/19 12:05:30;;;;;;;9.43;5.90;;;22.30;63.50;;;;;;5096776;28;20050;-73
2021/07/19 12:08:03;;;;;;;9.05;5.93;;;22.30;63.50;;;;;;5096288;28;20040;-73
2021/07/19 12:10:33;;;;;;;8.15;5.68;;;22.30;63.30;;;;;;5097356;28;20077;-73
2021/07/19 12:13:08;;;;;;;7.47;4.97;;;22.30;63.50;;;;;;5097077;28;20051;-73
2021/07/19 12:15:34;;;;;;;7.10;5.35;;;22.40;63.40;;;;;;5096887;28;20040;-73
2021/07/19 12:17:59;;;;;;;9.23;6.20;;;22.40;63.70;;;;;;5096446;28;20058;-73
2021/07/19 12:20:28;;;;;;;8.55;5.45;;;22.30;63.60;;;;;;5096436;28;20047;-72
2021/07/19 12:22:55;;;;;;;7.47;5.93;;;22.40;63.80;;;;;;5097035;28;20130;-72
2021/07/19 12:25:22;;;;;;;9.90;6.25;;;22.40;63.80;;;;;;5096231;28;20431;-73
2021/07/19 12:28:01;;;;;;;7.88;5.63;;;22.30;63.70;;;;;;5096248;28;20036;-73
2021/07/19 12:30:28;;;;;;;6.95;5.72;;;22.40;63.80;;;;;;5095922;28;20443;-73
2021/07/19 12:32:54;;;;;;;8.88;5.13;;;22.40;63.90;;;;;;5096385;28;20039;-73
2021/07/19 12:35:24;;;;;;;8.48;5.88;;;22.40;63.90;;;;;;5096055;28;20040;-73
2021/07/19 12:37:58;;;;;;;10.90;6.35;;;22.30;63.90;;;;;;5096228;28;20447;-74
2021/07/19 12:40:26;;;;;;;9.60;6.05;;;22.40;63.80;;;;;;5096105;28;20062;-73
2021/07/19 12:42:52;;;;;;;10.32;6.43;;;22.30;63.70;;;;;;5096132;28;20035;-73
2021/07/19 12:45:18;;;;;;;8.23;6.20;;;22.30;63.70;;;;;;5096277;28;20386;-73
2021/07/19 12:47:45;;;;;;;9.23;5.75;;;22.30;63.80;;;;;;5096431;28;20036;-73
2021/07/19 12:50:13;;;;;;;8.60;6.43;;;22.40;64.00;;;;;;5096205;28;20351;-73
2021/07/19 12:52:39;;;;;;;9.45;6.40;;;22.40;64.00;;;;;;5095846;28;20067;-73